createdAt,value
2023-04-11T00:03:38.956Z,5.21
2023-04-11T00:08:32.069Z,5.17
2023-04-11T00:13:26.783Z,5.11
2023-04-11T00:18:19.646Z,5.13
2023-04-11T00:23:13.906Z,5.09
2023-04-11T00:28:06.613Z,5.04
2023-04-11T00:32:59.519Z,4.94
2023-04-11T00:37:56.347Z,4.89
2023-04-11T00:42:49.703Z,4.85
2023-04-11T00:47:43.218Z,4.76
2023-04-11T00:52:38.209Z,4.66
2023-04-11T00:57:31.005Z,4.57
2023-04-11T01:02:25.200Z,4.52
2023-04-11T01:07:20.982Z,4.47
2023-04-11T01:12:15.896Z,4.44
2023-04-11T01:17:12.692Z,4.40
2023-04-11T01:22:06.221Z,4.35
2023-04-11T01:26:58.959Z,4.32
2023-04-11T01:31:55.171Z,4.27
2023-04-11T01:36:48.957Z,4.24
2023-04-11T01:41:43.028Z,4.19
2023-04-11T01:46:36.262Z,4.14
2023-04-11T01:51:29.081Z,4.07
2023-04-11T01:56:21.804Z,4.03
2023-04-11T02:01:14.605Z,3.99
2023-04-11T02:06:07.603Z,3.96
2023-04-11T02:11:00.320Z,3.92
2023-04-11T02:15:53.067Z,3.89
2023-04-11T02:20:45.867Z,3.83
2023-04-11T02:25:39.172Z,3.80
2023-04-11T02:30:31.916Z,3.76
2023-04-11T02:35:24.619Z,3.71
2023-04-11T02:40:17.320Z,3.67
2023-04-11T02:45:10.341Z,3.61
2023-04-11T02:50:03.505Z,3.56
2023-04-11T02:55:00.978Z,3.58
2023-04-11T02:59:54.089Z,3.57
2023-04-11T03:04:52.384Z,3.52
2023-04-11T03:09:45.467Z,3.45
2023-04-11T03:14:38.266Z,3.44
2023-04-11T03:19:31.014Z,3.41
2023-04-11T03:24:25.581Z,3.36
2023-04-11T03:29:18.383Z,3.32
2023-04-11T03:34:26.289Z,3.28
2023-04-11T03:39:21.798Z,3.27
2023-04-11T03:44:14.943Z,3.24
2023-04-11T03:49:09.805Z,3.21
2023-04-11T03:54:02.558Z,3.17
2023-04-11T03:58:59.213Z,3.16
2023-04-11T04:03:55.435Z,3.15
2023-04-11T04:08:48.547Z,3.17
2023-04-11T04:13:42.022Z,3.19
2023-04-11T04:18:38.050Z,3.23
2023-04-11T04:23:32.619Z,3.33
2023-04-11T04:28:48.443Z,3.39
2023-04-11T04:33:46.142Z,3.47
2023-04-11T04:38:45.777Z,3.52
2023-04-11T04:43:42.028Z,3.55
2023-04-11T04:48:41.450Z,3.59
2023-04-11T04:53:38.799Z,3.66
2023-04-11T04:58:34.319Z,3.77
2023-04-11T05:03:29.075Z,3.87
2023-04-11T05:08:23.278Z,3.96
2023-04-11T05:13:16.899Z,4.08
2023-04-11T05:18:09.851Z,4.17
2023-04-11T05:23:02.665Z,4.29
2023-04-11T05:27:57.104Z,4.40
2023-04-11T05:32:52.584Z,4.54
2023-04-11T05:37:46.213Z,4.68
2023-04-11T05:42:39.102Z,4.88
2023-04-11T05:47:32.465Z,5.18
2023-04-11T05:52:25.382Z,5.39
2023-04-11T05:57:18.276Z,5.70
2023-04-11T06:02:11.189Z,6.02
2023-04-11T06:07:04.505Z,6.27
2023-04-11T06:11:57.709Z,6.57
2023-04-11T06:16:50.445Z,6.83
2023-04-11T06:21:43.177Z,7.14
2023-04-11T06:26:37.497Z,7.52
2023-04-11T06:31:30.579Z,7.94
2023-04-11T06:36:23.734Z,8.30
2023-04-11T06:41:16.502Z,9.38
2023-04-11T06:46:09.395Z,9.94
2023-04-11T06:51:02.210Z,9.93
2023-04-11T06:55:54.913Z,9.94
2023-04-11T07:00:47.650Z,10.01
2023-04-11T07:05:40.550Z,10.23
2023-04-11T07:10:33.257Z,10.53
2023-04-11T07:15:25.947Z,10.76
2023-04-11T07:20:21.905Z,13.08
2023-04-11T07:25:14.724Z,17.61
2023-04-11T07:30:08.090Z,19.29
2023-04-11T07:35:00.919Z,22.32
2023-04-11T07:39:53.653Z,21.67
2023-04-11T07:44:46.780Z,21.69
2023-04-11T07:49:39.570Z,22.64
2023-04-11T07:54:32.774Z,22.80
2023-04-11T07:59:25.684Z,24.06
2023-04-11T08:04:18.566Z,24.68
2023-04-11T08:09:11.512Z,24.30
2023-04-11T08:14:04.519Z,23.19
2023-04-11T08:18:59.289Z,22.42
2023-04-11T08:23:52.178Z,22.19
2023-04-11T08:28:45.191Z,23.30
2023-04-11T08:33:38.207Z,23.39
2023-04-11T08:38:31.001Z,22.32
2023-04-11T08:43:23.863Z,23.08
2023-04-11T08:48:17.112Z,23.43
2023-04-11T08:53:09.867Z,24.81
2023-04-11T08:58:03.875Z,25.28
2023-04-11T09:02:56.670Z,24.49
2023-04-11T09:07:51.722Z,25.91
2023-04-11T09:12:45.156Z,24.90
2023-04-11T09:17:43.771Z,22.91
2023-04-11T09:22:37.977Z,21.05
2023-04-11T09:27:31.187Z,20.40
2023-04-11T09:32:31.371Z,20.68
2023-04-11T09:37:25.411Z,20.92
2023-04-11T09:42:24.885Z,21.82
2023-04-11T09:47:17.600Z,21.97
2023-04-11T09:52:10.600Z,21.38
2023-04-11T09:57:04.265Z,22.73
2023-04-11T10:01:59.297Z,22.32
2023-04-11T10:06:59.782Z,22.64
2023-04-11T10:11:52.883Z,25.66
2023-04-11T10:17:05.552Z,26.74
2023-04-11T10:21:58.314Z,28.51
2023-04-11T10:26:59.329Z,30.37
2023-04-11T10:32:10.818Z,30.72
2023-04-11T10:37:06.279Z,31.04
2023-04-11T10:42:18.999Z,31.51
2023-04-11T10:47:17.984Z,31.04
2023-04-11T10:52:18.410Z,31.16
2023-04-11T10:57:11.337Z,30.10
2023-04-11T11:02:04.808Z,30.26
2023-04-11T11:06:57.988Z,27.80
2023-04-11T11:12:09.787Z,26.09
2023-04-11T11:17:03.268Z,27.75
2023-04-11T11:21:56.738Z,27.28
2023-04-11T11:26:52.846Z,27.04
2023-04-11T11:31:46.780Z,27.13
2023-04-11T11:36:44.749Z,24.66
2023-04-11T11:41:41.803Z,22.80
2023-04-11T11:46:35.791Z,22.44
2023-04-11T11:51:28.903Z,21.78
2023-04-11T11:56:22.064Z,20.93
2023-04-11T12:01:17.888Z,20.17
2023-04-11T12:06:11.965Z,19.58
2023-04-11T12:11:11.707Z,19.07
2023-04-11T12:16:04.732Z,18.79
2023-04-11T12:20:58.692Z,18.55
2023-04-11T12:25:51.601Z,18.14
2023-04-11T12:30:44.403Z,17.85
2023-04-11T12:35:37.742Z,17.75
2023-04-11T12:40:30.733Z,18.19
2023-04-11T12:45:23.829Z,18.26
2023-04-11T12:50:16.994Z,17.80
2023-04-11T12:55:10.761Z,17.48
2023-04-11T13:00:10.924Z,17.25
2023-04-11T13:05:06.683Z,17.11
2023-04-11T13:09:59.463Z,17.18
2023-04-11T13:14:52.240Z,17.50
2023-04-11T13:19:45.446Z,17.84
2023-04-11T13:24:38.275Z,18.06
2023-04-11T13:29:30.971Z,18.38
2023-04-11T13:34:23.723Z,18.46
2023-04-11T13:39:17.933Z,18.50
2023-04-11T13:44:10.945Z,18.54
2023-04-11T13:49:05.593Z,18.63
2023-04-11T13:53:58.321Z,18.75
2023-04-11T13:58:52.009Z,18.81
2023-04-11T14:03:44.781Z,18.70
2023-04-11T14:08:37.939Z,18.65
2023-04-11T14:13:30.937Z,18.75
2023-04-11T14:18:24.316Z,18.50
2023-04-11T14:23:17.825Z,18.24
2023-04-11T14:28:10.720Z,18.16
2023-04-11T14:33:03.413Z,18.02
2023-04-11T14:37:58.549Z,17.92
2023-04-11T14:42:51.469Z,17.83
2023-04-11T14:47:44.234Z,17.91
2023-04-11T14:52:37.383Z,17.73
2023-04-11T14:57:46.507Z,17.54
2023-04-11T15:02:39.456Z,17.40
2023-04-11T15:07:32.256Z,17.40
2023-04-11T15:12:25.109Z,17.39
2023-04-11T15:17:17.941Z,17.29
2023-04-11T15:22:10.798Z,17.27
2023-04-11T15:27:03.879Z,17.25
2023-04-11T15:31:56.601Z,17.18
2023-04-11T15:36:49.359Z,17.05
2023-04-11T15:41:42.502Z,16.92
2023-04-11T15:46:35.762Z,16.78
2023-04-11T15:51:29.292Z,16.59
2023-04-11T15:56:22.496Z,16.34
2023-04-11T16:01:25.814Z,16.10
2023-04-11T16:06:20.215Z,15.88
2023-04-11T16:11:13.104Z,15.67
2023-04-11T16:16:08.409Z,15.52
2023-04-11T16:21:01.305Z,15.33
2023-04-11T16:25:54.080Z,15.15
2023-04-11T16:30:50.187Z,15.00
2023-04-11T16:35:43.116Z,14.88
2023-04-11T16:40:35.964Z,14.77
2023-04-11T16:45:29.108Z,14.63
2023-04-11T16:50:22.700Z,14.48
2023-04-11T16:55:15.563Z,14.32
2023-04-11T17:00:11.528Z,14.12
2023-04-11T17:05:04.898Z,13.91
2023-04-11T17:09:57.951Z,13.68
2023-04-11T17:14:52.671Z,13.46
2023-04-11T17:19:45.463Z,13.24
2023-04-11T17:24:38.217Z,13.04
2023-04-11T17:29:31.266Z,12.81
2023-04-11T17:34:24.080Z,12.58
2023-04-11T17:39:19.760Z,12.36
2023-04-11T17:44:12.597Z,12.17
2023-04-11T17:49:05.427Z,12.00
2023-04-11T17:53:58.727Z,11.83
2023-04-11T17:58:51.858Z,11.66
2023-04-11T18:03:44.807Z,11.47
2023-04-11T18:08:50.309Z,11.30
2023-04-11T18:13:45.919Z,11.14
2023-04-11T18:18:40.122Z,11.01
2023-04-11T18:23:32.856Z,10.89
2023-04-11T18:28:25.649Z,10.75
2023-04-11T18:33:19.688Z,10.58
2023-04-11T18:38:13.584Z,10.46
2023-04-11T18:43:09.111Z,10.32
2023-04-11T18:48:02.500Z,10.20
2023-04-11T18:52:57.949Z,10.07
2023-04-11T18:57:58.637Z,9.98
2023-04-11T19:02:53.296Z,9.89
2023-04-11T19:07:46.916Z,9.82
2023-04-11T19:12:39.851Z,9.72
2023-04-11T19:17:32.633Z,9.64
2023-04-11T19:22:25.350Z,9.57
2023-04-11T19:27:18.551Z,9.47
2023-04-11T19:32:11.718Z,9.39
2023-04-11T19:37:04.538Z,9.32
2023-04-11T19:41:57.612Z,9.23
2023-04-11T19:46:50.477Z,9.08
2023-04-11T19:51:43.185Z,8.99
2023-04-11T19:56:37.448Z,8.91
2023-04-11T20:01:32.424Z,8.79
2023-04-11T20:06:25.253Z,8.72
2023-04-11T20:11:18.041Z,8.62
2023-04-11T20:16:11.634Z,8.51
2023-04-11T20:21:06.398Z,8.39
2023-04-11T20:25:59.122Z,8.24
2023-04-11T20:30:52.217Z,8.18
2023-04-11T20:35:44.947Z,8.05
2023-04-11T20:40:38.956Z,7.92
2023-04-11T20:45:33.499Z,7.90
2023-04-11T20:50:30.986Z,7.83
2023-04-11T20:55:25.478Z,7.77
2023-04-11T21:00:18.687Z,7.72
2023-04-11T21:05:12.059Z,7.64
2023-04-11T21:10:06.753Z,7.58
2023-04-11T21:15:00.368Z,7.54
2023-04-11T21:19:53.133Z,7.49
2023-04-11T21:24:45.868Z,7.42
2023-04-11T21:29:38.563Z,7.34
2023-04-11T21:34:31.226Z,7.27
2023-04-11T21:39:24.225Z,7.20
2023-04-11T21:44:16.943Z,7.15
2023-04-11T21:49:10.019Z,7.08
2023-04-11T21:54:04.572Z,7.01
2023-04-11T21:58:57.241Z,6.95
2023-04-11T22:03:50.589Z,6.93
2023-04-11T22:08:50.480Z,6.90
2023-04-11T22:13:46.695Z,6.99
2023-04-11T22:18:49.145Z,7.20
2023-04-11T22:23:44.818Z,7.38
2023-04-11T22:28:38.282Z,7.54
2023-04-11T22:33:31.011Z,7.60
2023-04-11T22:38:24.482Z,7.62
2023-04-11T22:43:17.265Z,7.63
2023-04-11T22:48:10.153Z,7.63
2023-04-11T22:53:03.192Z,7.59
2023-04-11T22:57:58.072Z,7.50
2023-04-11T23:02:51.149Z,7.41
2023-04-11T23:07:44.039Z,7.35
2023-04-11T23:12:37.393Z,7.32
2023-04-11T23:17:30.225Z,7.29
2023-04-11T23:22:23.688Z,7.30
2023-04-11T23:27:17.215Z,7.35
2023-04-11T23:32:09.897Z,7.35
2023-04-11T23:37:02.617Z,7.30
2023-04-11T23:41:55.300Z,7.31
2023-04-11T23:46:47.972Z,7.36
2023-04-11T23:51:40.679Z,7.34
2023-04-11T23:56:33.445Z,7.24
